Time;durP1;ratioP1;P1;durP2;ratioP2;P2;SDS_P1;SDS_P2;PMS_P1;PMS_P2;Temp;Humidity;BMP_temperature;BMP_pressure;BME280_temperature;BME280_humidity;BME280_pressure;Samples;Min_cycle;Max_cycle;Signal;HPM_P1;HPM_P2
2022/07/19 00:00:20;;;;;;;8.52;5.70;;;16.70;99.90;;;;;;5063424;28;20362;-67
2022/07/19 00:02:46;;;;;;;8.52;6.13;;;16.70;99.90;;;;;;5069364;28;20052;-67
2022/07/19 00:05:13;;;;;;;8.82;6.20;;;16.70;99.90;;;;;;5052407;28;20094;-67
2022/07/19 00:07:40;;;;;;;7.70;5.70;;;16.80;99.90;;;;;;5086976;28;20048;-67
2022/07/19 00:10:08;;;;;;;8.57;6.10;;;16.70;99.90;;;;;;5068185;28;20063;-67
2022/07/19 00:12:34;;;;;;;8.63;6.40;;;16.70;99.90;;;;;;5068783;28;20044;-67
2022/07/19 00:15:00;;;;;;;11.43;6.15;;;16.70;99.90;;;;;;5069144;28;20516;-67
2022/07/19 00:17:26;;;;;;;8.40;5.82;;;16.60;99.90;;;;;;5068889;28;20048;-67
2022/07/19 00:19:52;;;;;;;8.00;5.55;;;16.60;99.90;;;;;;5068646;28;20084;-67
2022/07/19 00:22:17;;;;;;;8.57;6.97;;;16.60;99.90;;;;;;5087262;28;20036;-67
2022/07/19 00:24:43;;;;;;;9.52;6.05;;;16.50;99.90;;;;;;5068548;28;20508;-67
2022/07/19 00:27:09;;;;;;;10.55;6.75;;;16.50;99.90;;;;;;5086646;28;20095;-67
2022/07/19 00:29:34;;;;;;;9.35;6.70;;;16.50;99.90;;;;;;5068689;28;20047;-67
2022/07/19 00:32:00;;;;;;;12.10;7.97;;;16.50;99.90;;;;;;5070706;28;20052;-67
2022/07/19 00:34:26;;;;;;;8.82;6.45;;;16.60;99.90;;;;;;5043795;28;20083;-67
2022/07/19 00:36:51;;;;;;;8.68;6.60;;;16.50;99.90;;;;;;5075364;28;20060;-67
2022/07/19 00:39:17;;;;;;;10.57;6.50;;;16.50;99.90;;;;;;5085539;28;20049;-67
2022/07/19 00:41:44;;;;;;;8.45;6.18;;;16.40;99.90;;;;;;5069488;28;20076;-67
2022/07/19 00:44:10;;;;;;;8.00;6.38;;;16.40;99.90;;;;;;5065897;28;20103;-67
2022/07/19 00:46:36;;;;;;;9.77;7.03;;;16.40;99.90;;;;;;5067589;28;20063;-67
2022/07/19 00:49:03;;;;;;;11.55;6.78;;;16.40;99.90;;;;;;5084857;28;20049;-67
2022/07/19 00:51:32;;;;;;;9.13;6.40;;;16.30;99.90;;;;;;5066024;28;20056;-67
2022/07/19 00:54:01;;;;;;;7.80;6.13;;;16.20;99.90;;;;;;5064908;28;20074;-67
2022/07/19 00:56:29;;;;;;;10.55;6.63;;;16.20;99.90;;;;;;5064868;28;20061;-67
2022/07/19 00:58:56;;;;;;;8.18;6.03;;;16.20;99.90;;;;;;5065484;28;20401;-67
2022/07/19 01:01:22;;;;;;;7.88;6.40;;;16.20;99.90;;;;;;5047788;28;20564;-67
2022/07/19 01:03:49;;;;;;;9.15;6.20;;;16.10;99.90;;;;;;5044879;28;20048;-67
2022/07/19 01:06:15;;;;;;;8.95;6.15;;;16.10;99.90;;;;;;5044746;28;20045;-67
2022/07/19 01:08:41;;;;;;;9.25;6.65;;;16.10;99.90;;;;;;5045736;28;20053;-67
2022/07/19 01:11:07;;;;;;;8.77;7.13;;;16.10;99.90;;;;;;5044783;28;20050;-67
2022/07/19 01:13:33;;;;;;;9.00;6.43;;;16.00;99.90;;;;;;5044483;28;20155;-67
2022/07/19 01:16:00;;;;;;;9.57;6.68;;;16.00;99.90;;;;;;5045889;28;20107;-67
2022/07/19 01:18:25;;;;;;;7.80;6.43;;;16.00;99.90;;;;;;5046203;28;20101;-67
2022/07/19 01:20:52;;;;;;;11.18;7.00;;;16.00;99.90;;;;;;5044369;28;20045;-67
2022/07/19 01:23:18;;;;;;;10.70;7.60;;;16.00;99.90;;;;;;5045546;28;20120;-67
2022/07/19 01:25:43;;;;;;;10.43;6.68;;;16.00;99.90;;;;;;5050101;28;20045;-67
2022/07/19 01:28:09;;;;;;;8.45;6.35;;;16.00;99.90;;;;;;5064146;28;20075;-67
2022/07/19 01:30:35;;;;;;;8.63;6.90;;;15.90;99.90;;;;;;5064172;28;20080;-67
2022/07/19 01:33:02;;;;;;;8.00;6.38;;;15.90;99.90;;;;;;5044966;28;20069;-67
2022/07/19 01:35:31;;;;;;;12.05;7.10;;;15.90;99.90;;;;;;5064341;28;20053;-67
2022/07/19 01:37:57;;;;;;;10.48;7.10;;;15.80;99.90;;;;;;5067635;28;20049;-67
2022/07/19 01:40:25;;;;;;;10.85;7.68;;;15.80;99.90;;;;;;5080455;28;20048;-67
2022/07/19 01:42:51;;;;;;;9.88;7.43;;;15.90;99.90;;;;;;5065338;28;20029;-67
2022/07/19 01:45:18;;;;;;;9.77;6.95;;;15.70;99.90;;;;;;5076532;28;20044;-67
2022/07/19 01:47:44;;;;;;;9.57;7.43;;;15.60;99.90;;;;;;5079499;28;20108;-67
2022/07/19 01:50:12;;;;;;;13.32;7.13;;;15.60;99.90;;;;;;5076108;28;20051;-67
2022/07/19 01:52:37;;;;;;;14.75;8.88;;;15.50;99.90;;;;;;5063920;28;20052;-67
2022/07/19 01:55:04;;;;;;;12.85;7.53;;;15.50;99.90;;;;;;5063261;28;20092;-67
2022/07/19 01:57:30;;;;;;;12.18;8.18;;;15.50;99.90;;;;;;5065040;28;20045;-67
2022/07/19 01:59:57;;;;;;;11.35;8.13;;;15.40;99.90;;;;;;5056748;28;20051;-67
2022/07/19 02:02:22;;;;;;;11.57;7.03;;;15.40;99.90;;;;;;5078337;28;20115;-67
2022/07/19 02:04:48;;;;;;;13.50;7.40;;;15.40;99.90;;;;;;5082066;28;20458;-67
2022/07/19 02:07:14;;;;;;;11.57;7.68;;;15.30;99.90;;;;;;5084428;28;20024;-67
2022/07/19 02:09:40;;;;;;;10.80;7.80;;;15.30;99.90;;;;;;5066039;28;20057;-67
2022/07/19 02:12:06;;;;;;;10.35;8.10;;;15.30;99.90;;;;;;5066903;28;20040;-67
2022/07/19 02:14:32;;;;;;;10.80;7.43;;;15.30;99.90;;;;;;5066302;28;20080;-67
2022/07/19 02:16:57;;;;;;;8.80;7.22;;;15.20;99.90;;;;;;5066786;28;20052;-67
2022/07/19 02:19:23;;;;;;;9.30;7.47;;;15.20;99.90;;;;;;5066569;28;20432;-67
2022/07/19 02:21:49;;;;;;;11.13;7.85;;;15.10;99.90;;;;;;5046874;28;20163;-67
2022/07/19 02:24:15;;;;;;;9.18;7.20;;;15.10;99.90;;;;;;5056698;28;20053;-67
2022/07/19 02:26:40;;;;;;;8.88;6.32;;;15.10;99.90;;;;;;5063407;28;20102;-67
2022/07/19 02:29:06;;;;;;;8.85;6.82;;;15.10;99.90;;;;;;5077902;28;20050;-67
2022/07/19 02:31:33;;;;;;;8.32;6.70;;;15.10;99.90;;;;;;5067307;28;20617;-67
2022/07/19 02:33:58;;;;;;;12.20;8.88;;;15.10;99.90;;;;;;5066912;28;20695;-67
2022/07/19 02:36:24;;;;;;;10.70;8.43;;;15.20;99.90;;;;;;5053073;28;20052;-67
2022/07/19 02:38:50;;;;;;;10.43;8.38;;;15.20;99.90;;;;;;5065725;28;20524;-67
2022/07/19 02:41:17;;;;;;;12.25;8.10;;;15.20;99.90;;;;;;5066554;28;20044;-67
2022/07/19 02:43:43;;;;;;;11.07;7.85;;;15.20;99.90;;;;;;5067458;28;20041;-67
2022/07/19 02:46:09;;;;;;;9.48;6.97;;;15.30;99.90;;;;;;5066010;28;20069;-67
2022/07/19 02:48:35;;;;;;;12.07;8.60;;;15.30;99.90;;;;;;5073565;28;20076;-67
2022/07/19 02:51:01;;;;;;;12.82;7.00;;;15.30;99.90;;;;;;5070161;28;20044;-67
2022/07/19 02:53:27;;;;;;;8.52;6.57;;;15.20;99.90;;;;;;5067097;28;20052;-67
2022/07/19 02:55:53;;;;;;;9.77;7.50;;;15.20;99.90;;;;;;5066712;28;20053;-67
2022/07/19 02:58:19;;;;;;;8.98;6.70;;;15.10;99.90;;;;;;5067307;28;20103;-67
2022/07/19 03:00:45;;;;;;;8.50;7.40;;;15.20;99.90;;;;;;5083549;28;20522;-67
2022/07/19 03:05:55;;;;;;;8.73;7.05;;;15.20;99.90;;;;;;5068305;28;20063;-67
2022/07/19 03:08:21;;;;;;;10.50;7.45;;;15.10;99.90;;;;;;5083888;28;20072;-67
2022/07/19 03:10:47;;;;;;;11.30;7.75;;;15.10;99.90;;;;;;5065731;28;20090;-67
2022/07/19 03:13:13;;;;;;;11.18;8.52;;;15.00;99.90;;;;;;5066067;28;20052;-67
2022/07/19 03:15:39;;;;;;;13.55;8.48;;;15.00;99.90;;;;;;5083185;28;20091;-67
2022/07/19 03:18:04;;;;;;;8.73;7.32;;;15.00;99.90;;;;;;5065849;28;20045;-67
2022/07/19 03:20:30;;;;;;;13.88;7.60;;;14.90;99.90;;;;;;5065649;28;20045;-67
2022/07/19 03:22:56;;;;;;;14.38;8.23;;;14.80;99.90;;;;;;5084332;28;20044;-67
2022/07/19 03:25:22;;;;;;;8.10;7.20;;;14.80;99.90;;;;;;5062727;28;20064;-67
2022/07/19 03:27:48;;;;;;;10.15;6.88;;;14.70;99.90;;;;;;5073142;28;20062;-67
2022/07/19 03:30:13;;;;;;;10.68;6.78;;;14.70;99.90;;;;;;5065661;28;20074;-67
2022/07/19 03:32:39;;;;;;;9.60;6.80;;;14.70;99.90;;;;;;5065414;28;20112;-67
2022/07/19 03:35:06;;;;;;;8.40;6.63;;;14.60;99.90;;;;;;5066018;28;20059;-67
2022/07/19 03:37:31;;;;;;;8.88;6.30;;;14.60;99.90;;;;;;5066012;28;20053;-67
2022/07/19 03:39:57;;;;;;;7.53;6.35;;;14.80;99.90;;;;;;5083827;28;20531;-67
2022/07/19 03:42:23;;;;;;;12.18;7.88;;;14.90;99.90;;;;;;5077895;28;20037;-67
2022/07/19 03:44:48;;;;;;;10.65;8.07;;;15.10;99.90;;;;;;5065851;28;20144;-67
2022/07/19 03:47:14;;;;;;;11.98;7.85;;;15.20;99.90;;;;;;5095751;28;20036;-67
2022/07/19 03:49:40;;;;;;;12.52;8.23;;;15.30;99.90;;;;;;5070434;28;20068;-67
2022/07/19 03:52:05;;;;;;;10.52;6.90;;;15.40;99.90;;;;;;5080665;28;20050;-67
2022/07/19 03:54:31;;;;;;;12.40;6.80;;;15.30;99.90;;;;;;5069548;28;20048;-67
2022/07/19 03:56:57;;;;;;;9.05;6.30;;;15.30;99.90;;;;;;5087138;28;20040;-67
2022/07/19 03:59:23;;;;;;;9.35;5.90;;;15.20;99.90;;;;;;5068998;28;20037;-67
2022/07/19 04:01:49;;;;;;;11.02;6.40;;;15.10;99.90;;;;;;5088062;28;20515;-67
2022/07/19 04:04:15;;;;;;;9.90;5.32;;;15.10;99.90;;;;;;5067068;28;20039;-67
2022/07/19 04:06:40;;;;;;;8.88;5.22;;;15.10;99.90;;;;;;5068754;28;20053;-67
2022/07/19 04:09:06;;;;;;;9.68;4.70;;;15.00;99.90;;;;;;5069548;28;20048;-67
2022/07/19 04:11:32;;;;;;;9.98;3.88;;;15.00;99.90;;;;;;5069174;28;20087;-67
2022/07/19 04:13:58;;;;;;;9.27;4.60;;;15.00;99.90;;;;;;5086584;28;20044;-67
2022/07/19 04:16:23;;;;;;;10.15;4.97;;;15.00;99.90;;;;;;5086405;28;20052;-67
2022/07/19 04:18:49;;;;;;;10.75;5.43;;;15.00;99.90;;;;;;5068789;28;20029;-67
2022/07/19 04:21:15;;;;;;;8.95;5.68;;;15.00;99.90;;;;;;5087676;28;20048;-67
2022/07/19 04:23:40;;;;;;;7.82;6.00;;;15.00;99.90;;;;;;5068821;28;20072;-67
2022/07/19 04:26:06;;;;;;;13.15;7.03;;;15.00;99.90;;;;;;5060637;28;20133;-67
2022/07/19 04:28:32;;;;;;;7.78;6.65;;;15.00;99.90;;;;;;5065090;28;20044;-67
2022/07/19 04:30:57;;;;;;;9.15;6.80;;;15.10;99.90;;;;;;5086598;28;20044;-67
2022/07/19 04:33:23;;;;;;;9.63;7.32;;;15.10;99.90;;;;;;5086116;28;20135;-67
2022/07/19 04:35:49;;;;;;;9.93;6.80;;;15.10;99.90;;;;;;5068015;28;20044;-67
2022/07/19 04:38:15;;;;;;;9.82;6.78;;;15.20;99.90;;;;;;5086238;28;20132;-67
2022/07/19 04:40:40;;;;;;;12.93;6.50;;;15.20;99.90;;;;;;5069686;28;20094;-67
2022/07/19 04:43:06;;;;;;;9.18;6.50;;;15.20;99.90;;;;;;5069508;28;20437;-67
2022/07/19 04:45:32;;;;;;;8.32;7.07;;;15.30;99.90;;;;;;5086979;28;20051;-67
2022/07/19 04:47:58;;;;;;;8.10;6.85;;;15.30;99.90;;;;;;5066142;28;20051;-67
2022/07/19 04:50:23;;;;;;;9.80;8.02;;;15.30;99.90;;;;;;5084098;28;20045;-67
2022/07/19 04:52:49;;;;;;;10.20;7.00;;;15.40;99.90;;;;;;5085635;28;20075;-67
2022/07/19 04:55:15;;;;;;;13.13;7.13;;;15.40;99.90;;;;;;5086088;28;20052;-67
2022/07/19 04:57:40;;;;;;;11.30;7.68;;;15.50;99.90;;;;;;5066778;28;20049;-67
2022/07/19 05:00:09;;;;;;;10.50;6.47;;;15.60;99.90;;;;;;5073868;28;20051;-67
2022/07/19 05:02:36;;;;;;;9.65;7.60;;;15.70;99.90;;;;;;5068938;28;20104;-67
2022/07/19 05:05:02;;;;;;;8.68;7.28;;;15.80;99.90;;;;;;5068678;28;20052;-67
2022/07/19 05:07:28;;;;;;;10.02;7.88;;;15.90;99.90;;;;;;5068560;28;20397;-67
2022/07/19 05:09:54;;;;;;;10.48;7.57;;;15.90;99.90;;;;;;5086607;28;20056;-67
2022/07/19 05:12:19;;;;;;;12.25;6.75;;;16.00;99.90;;;;;;5068597;28;20052;-67
2022/07/19 05:14:45;;;;;;;9.68;6.32;;;16.10;99.90;;;;;;5068779;28;20048;-67
2022/07/19 05:17:11;;;;;;;15.48;7.30;;;16.20;99.90;;;;;;5051145;28;20047;-67
2022/07/19 05:19:36;;;;;;;13.35;9.15;;;16.30;99.90;;;;;;5086774;28;20052;-67
2022/07/19 05:22:02;;;;;;;14.52;8.65;;;16.40;99.90;;;;;;5067970;28;20041;-67
2022/07/19 05:24:28;;;;;;;12.57;9.25;;;16.50;99.90;;;;;;5085338;28;20040;-67
2022/07/19 05:26:54;;;;;;;13.63;8.70;;;16.60;99.90;;;;;;5056293;28;20447;-67
2022/07/19 05:29:20;;;;;;;10.52;8.13;;;16.60;99.90;;;;;;5085710;28;20119;-67
2022/07/19 05:31:46;;;;;;;15.68;9.90;;;16.70;99.90;;;;;;5084953;28;20044;-67
2022/07/19 05:34:11;;;;;;;15.93;10.18;;;16.80;99.90;;;;;;5055180;28;20382;-67
2022/07/19 05:36:37;;;;;;;10.45;8.73;;;16.90;99.90;;;;;;5064722;28;20059;-67
2022/07/19 05:39:03;;;;;;;13.13;9.55;;;17.00;99.90;;;;;;5056202;28;20100;-67
2022/07/19 05:41:29;;;;;;;17.13;11.10;;;17.10;99.90;;;;;;5047264;28;20298;-67
2022/07/19 05:43:55;;;;;;;12.65;10.20;;;17.20;99.90;;;;;;5065883;28;20386;-67
2022/07/19 05:46:21;;;;;;;16.58;10.30;;;17.30;99.90;;;;;;5047846;28;20095;-67
2022/07/19 05:48:47;;;;;;;15.52;10.90;;;17.40;99.90;;;;;;5048013;28;20139;-67
2022/07/19 05:51:13;;;;;;;13.88;9.95;;;17.50;99.90;;;;;;5047428;28;20077;-67
2022/07/19 05:53:39;;;;;;;15.75;11.30;;;17.50;99.90;;;;;;5064920;28;20138;-67
2022/07/19 05:56:06;;;;;;;15.55;10.25;;;17.60;99.90;;;;;;5046828;28;20053;-67
2022/07/19 05:58:32;;;;;;;16.75;10.30;;;17.70;99.90;;;;;;5026883;28;20034;-67
2022/07/19 06:03:42;;;;;;;24.48;11.35;;;17.90;99.90;;;;;;5064101;28;20052;-67
2022/07/19 06:06:08;;;;;;;15.60;11.00;;;18.00;99.90;;;;;;5046896;28;20053;-67
2022/07/19 06:08:34;;;;;;;15.15;11.82;;;18.10;99.90;;;;;;5063841;28;20104;-76
2022/07/19 06:11:00;;;;;;;16.27;11.85;;;18.30;99.90;;;;;;5045707;28;20479;-67
2022/07/19 06:13:26;;;;;;;16.20;10.77;;;18.40;99.90;;;;;;5046103;28;20045;-67
2022/07/19 06:15:51;;;;;;;15.30;11.52;;;18.50;99.90;;;;;;5045738;28;20516;-68
2022/07/19 06:18:18;;;;;;;15.27;10.70;;;18.50;99.90;;;;;;5045600;28;20048;-67
2022/07/19 06:20:44;;;;;;;17.55;10.38;;;18.60;99.90;;;;;;5045902;28;20045;-67
2022/07/19 06:23:10;;;;;;;16.67;9.98;;;18.60;99.90;;;;;;5045412;28;20051;-67
2022/07/19 06:25:35;;;;;;;14.23;10.20;;;18.70;99.90;;;;;;5046724;28;20083;-68
2022/07/19 06:28:01;;;;;;;14.98;10.13;;;18.80;99.90;;;;;;5063084;28;20053;-67
2022/07/19 06:30:27;;;;;;;14.73;10.02;;;18.80;99.90;;;;;;5046507;28;20047;-68
2022/07/19 06:32:53;;;;;;;15.68;10.15;;;18.90;99.90;;;;;;5030071;28;20045;-67
2022/07/19 06:35:18;;;;;;;19.30;10.10;;;19.10;99.90;;;;;;5047087;28;20456;-67
2022/07/19 06:37:44;;;;;;;16.35;10.52;;;19.10;99.90;;;;;;5060874;28;20056;-67
2022/07/19 06:40:10;;;;;;;12.85;10.35;;;19.20;99.90;;;;;;5049405;28;20116;-67
2022/07/19 06:42:36;;;;;;;18.33;11.02;;;19.30;99.90;;;;;;5066969;28;20052;-68
2022/07/19 06:45:02;;;;;;;19.83;11.00;;;19.40;99.90;;;;;;5080394;28;20049;-67
2022/07/19 06:47:29;;;;;;;16.20;10.50;;;19.50;99.90;;;;;;5091776;28;20075;-67
2022/07/19 06:49:55;;;;;;;12.70;8.68;;;19.50;99.90;;;;;;5067681;28;20108;-67
2022/07/19 06:52:20;;;;;;;12.95;9.93;;;19.60;99.90;;;;;;5066855;28;20064;-68
2022/07/19 06:54:46;;;;;;;13.48;9.30;;;19.80;99.90;;;;;;5062283;28;20064;-68
2022/07/19 06:57:12;;;;;;;11.52;9.27;;;19.90;99.90;;;;;;5076565;28;20443;-68
2022/07/19 06:59:38;;;;;;;15.43;9.32;;;20.00;99.90;;;;;;5084988;28;20024;-68
2022/07/19 07:02:04;;;;;;;16.58;9.30;;;20.10;99.90;;;;;;5066930;28;20591;-68
2022/07/19 07:04:30;;;;;;;15.95;9.63;;;20.20;99.90;;;;;;5066227;28;20048;-69
2022/07/19 07:06:56;;;;;;;13.50;8.82;;;20.20;99.90;;;;;;5066338;28;20051;-69
2022/07/19 07:09:22;;;;;;;15.50;8.93;;;20.20;99.90;;;;;;5066788;28;20041;-69
2022/07/19 07:11:48;;;;;;;15.50;9.40;;;20.30;99.90;;;;;;5066845;28;20074;-68
2022/07/19 07:14:14;;;;;;;10.45;8.55;;;20.30;99.90;;;;;;5067247;28;20047;-68
2022/07/19 07:16:39;;;;;;;14.85;9.43;;;20.40;99.90;;;;;;5084221;28;20071;-69
2022/07/19 07:19:05;;;;;;;13.38;8.98;;;20.50;99.90;;;;;;5083681;28;20102;-69
2022/07/19 07:21:34;;;;;;;14.40;8.55;;;20.60;99.90;;;;;;5087672;28;20083;-68
2022/07/19 07:24:04;;;;;;;15.18;9.00;;;20.70;99.90;;;;;;5088471;28;20052;-70
2022/07/19 07:26:31;;;;;;;12.15;8.77;;;20.80;99.90;;;;;;5068829;28;20052;-70
2022/07/19 07:28:57;;;;;;;15.73;8.90;;;20.90;99.90;;;;;;5065278;28;20076;-71
2022/07/19 07:31:23;;;;;;;10.45;8.30;;;21.00;99.90;;;;;;5087628;28;20062;-70
2022/07/19 07:33:49;;;;;;;12.85;7.68;;;21.10;99.90;;;;;;5066924;28;20123;-69
2022/07/19 07:36:14;;;;;;;13.35;7.82;;;21.20;99.90;;;;;;5087639;28;20060;-71
2022/07/19 07:38:41;;;;;;;12.65;7.68;;;21.30;99.90;;;;;;5069923;28;20096;-69
2022/07/19 07:41:07;;;;;;;11.52;7.70;;;21.40;99.90;;;;;;5069905;28;20103;-70
2022/07/19 07:43:33;;;;;;;14.02;7.80;;;21.60;99.90;;;;;;5068544;28;20069;-67
2022/07/19 07:45:58;;;;;;;11.57;7.15;;;21.70;99.90;;;;;;5063883;28;20040;-66
2022/07/19 07:48:24;;;;;;;7.60;5.55;;;21.80;99.90;;;;;;5071094;28;20045;-66
2022/07/19 07:50:50;;;;;;;11.60;6.97;;;21.80;99.90;;;;;;5069964;28;20055;-66
2022/07/19 07:53:15;;;;;;;14.93;7.65;;;21.90;99.90;;;;;;5069392;28;20044;-67
2022/07/19 07:55:41;;;;;;;10.63;7.35;;;22.00;99.90;;;;;;5066204;28;20049;-66
2022/07/19 07:58:09;;;;;;;11.25;7.10;;;22.10;99.90;;;;;;5068590;28;20075;-67
2022/07/19 08:00:35;;;;;;;11.20;6.43;;;22.20;99.90;;;;;;5086591;28;20040;-67
2022/07/19 08:03:01;;;;;;;10.63;6.55;;;22.20;99.90;;;;;;5069296;28;20055;-67
2022/07/19 08:05:27;;;;;;;12.23;6.32;;;22.30;99.90;;;;;;5066354;28;20049;-67
2022/07/19 08:07:53;;;;;;;8.93;6.28;;;22.40;99.90;;;;;;5069840;28;20063;-67
2022/07/19 08:10:21;;;;;;;14.02;6.15;;;22.40;99.90;;;;;;5069660;28;20078;-67
2022/07/19 08:12:47;;;;;;;9.98;5.95;;;22.50;99.90;;;;;;5087646;28;20412;-67
2022/07/19 08:15:12;;;;;;;11.02;6.72;;;22.50;99.90;;;;;;5086169;28;20044;-67
2022/07/19 08:17:38;;;;;;;8.75;5.78;;;22.70;99.90;;;;;;5086602;28;20036;-66
2022/07/19 08:20:04;;;;;;;8.93;5.10;;;22.80;99.90;;;;;;5087421;28;20048;-65
2022/07/19 08:22:30;;;;;;;8.05;4.65;;;22.90;99.90;;;;;;5009602;28;20118;-68
2022/07/19 08:24:56;;;;;;;9.60;5.50;;;22.90;99.90;;;;;;5043694;28;20558;-66
2022/07/19 08:27:21;;;;;;;8.77;5.20;;;23.00;99.90;;;;;;5036614;28;20142;-68
2022/07/19 08:29:47;;;;;;;9.88;5.90;;;23.10;99.90;;;;;;5045862;28;20041;-65
2022/07/19 08:32:13;;;;;;;10.27;5.40;;;23.10;99.90;;;;;;5058174;28;20044;-66
2022/07/19 08:34:38;;;;;;;7.68;5.03;;;23.20;99.90;;;;;;5044492;28;20155;-66
2022/07/19 08:37:04;;;;;;;9.43;5.15;;;23.30;99.90;;;;;;5044126;28;20045;-66
2022/07/19 08:39:30;;;;;;;10.30;5.50;;;23.40;99.90;;;;;;5028803;28;20721;-66
2022/07/19 08:41:56;;;;;;;12.23;5.50;;;23.50;99.90;;;;;;5038797;28;20052;-66
2022/07/19 08:44:22;;;;;;;9.73;4.50;;;23.60;99.90;;;;;;5044834;28;20200;-65
2022/07/19 08:46:48;;;;;;;10.48;4.53;;;23.70;99.90;;;;;;5037537;28;20057;-66
2022/07/19 08:49:15;;;;;;;9.27;4.03;;;23.80;99.90;;;;;;5033073;28;20045;-66
2022/07/19 08:51:46;;;;;;;7.45;4.35;;;23.90;99.90;;;;;;5038927;28;20144;-67
2022/07/19 08:54:12;;;;;;;8.43;4.18;;;24.00;99.90;;;;;;5050965;28;20065;-66
2022/07/19 08:59:23;;;;;;;8.38;3.67;;;24.10;99.90;;;;;;5012558;28;20080;-66
2022/07/19 09:01:49;;;;;;;8.48;4.18;;;24.30;99.90;;;;;;5055551;28;20053;-67
2022/07/19 09:04:19;;;;;;;5.85;3.97;;;24.60;99.90;;;;;;5031223;28;20127;-70
2022/07/19 09:06:51;;;;;;;7.35;4.18;;;24.60;99.90;;;;;;5044500;28;20102;-71
2022/07/19 09:09:23;;;;;;;9.93;4.65;;;24.70;99.90;;;;;;5015388;28;20162;-72
2022/07/19 09:11:51;;;;;;;6.80;3.75;;;24.70;99.90;;;;;;5040551;28;20708;-69
2022/07/19 09:14:25;;;;;;;14.00;4.07;;;24.90;99.90;;;;;;5035305;28;20133;-69
2022/07/19 09:17:03;;;;;;;9.27;3.55;;;25.00;99.90;;;;;;5044831;28;20052;-72
2022/07/19 09:19:46;;;;;;;6.40;3.70;;;25.20;99.90;;;;;;5033815;28;20124;-73
2022/07/19 09:22:13;;;;;;;9.38;4.47;;;25.40;99.90;;;;;;5025843;28;20044;-73
2022/07/19 09:24:50;;;;;;;5.55;3.22;;;25.70;99.90;;;;;;5032801;28;20053;-70
2022/07/19 09:27:23;;;;;;;9.57;4.03;;;25.80;99.90;;;;;;5040221;28;20390;-71
2022/07/19 09:29:53;;;;;;;7.95;4.45;;;25.70;99.90;;;;;;5014788;28;20049;-71
2022/07/19 09:32:21;;;;;;;7.85;3.88;;;26.20;99.90;;;;;;5040208;28;20037;-63
2022/07/19 09:34:55;;;;;;;6.75;3.88;;;26.10;99.90;;;;;;5031498;28;20045;-67
2022/07/19 09:37:28;;;;;;;9.77;3.92;;;26.10;99.90;;;;;;5052640;28;20063;-67
2022/07/19 09:39:56;;;;;;;9.23;3.67;;;26.10;99.90;;;;;;5064492;28;20048;-67
2022/07/19 09:42:24;;;;;;;8.88;3.22;;;26.30;99.90;;;;;;5060691;28;20100;-67
2022/07/19 09:44:58;;;;;;;7.38;3.75;;;26.40;99.90;;;;;;5050271;28;20052;-67
2022/07/19 09:47:36;;;;;;;8.07;3.28;;;26.40;99.90;;;;;;5058119;28;20284;-67
2022/07/19 09:50:05;;;;;;;6.82;3.40;;;26.60;99.90;;;;;;5066155;28;20051;-68
2022/07/19 09:52:33;;;;;;;6.25;3.50;;;26.80;99.90;;;;;;5075778;28;20074;-67
2022/07/19 09:55:01;;;;;;;7.43;3.15;;;26.80;99.90;;;;;;5045299;28;20124;-68
2022/07/19 09:57:28;;;;;;;13.00;3.78;;;26.90;99.90;;;;;;5060000;28;20040;-67
2022/07/19 09:59:57;;;;;;;4.97;3.20;;;27.00;99.90;;;;;;5027780;28;20049;-67
2022/07/19 10:02:23;;;;;;;8.05;2.95;;;27.00;99.90;;;;;;5051277;28;20041;-67
2022/07/19 10:04:52;;;;;;;9.07;3.40;;;27.10;99.90;;;;;;5014720;28;20072;-67
2022/07/19 10:07:18;;;;;;;;;;;27.30;99.90;;;;;;5044907;28;20052;-67
2022/07/19 10:09:44;;;;;;;4.97;2.90;;;27.30;99.90;;;;;;5028811;28;19925;-67
2022/07/19 10:12:11;;;;;;;9.70;3.47;;;27.40;99.90;;;;;;5059944;28;20055;-67
2022/07/19 10:14:37;;;;;;;7.90;3.65;;;27.70;99.90;;;;;;5032391;28;20239;-67
2022/07/19 10:17:09;;;;;;;4.43;2.92;;;27.80;99.90;;;;;;5068959;28;20048;-68
2022/07/19 10:19:37;;;;;;;5.07;2.85;;;27.80;99.90;;;;;;5038817;28;20052;-67
2022/07/19 10:22:04;;;;;;;7.15;3.28;;;27.80;99.90;;;;;;5029644;28;20579;-67
2022/07/19 10:24:58;;;;;;;7.97;2.92;;;27.90;99.90;;;;;;5031506;28;20045;-67
2022/07/19 10:27:24;;;;;;;5.80;2.85;;;28.00;99.90;;;;;;5054418;28;20040;-68
2022/07/19 10:30:12;;;;;;;7.00;3.40;;;28.00;99.90;;;;;;5030213;28;20056;-67
2022/07/19 10:32:46;;;;;;;6.68;2.88;;;28.10;99.90;;;;;;5046716;28;20075;-68
2022/07/19 10:35:18;;;;;;;6.20;2.85;;;28.20;99.90;;;;;;5026248;28;20048;-67
2022/07/19 10:37:55;;;;;;;7.65;3.13;;;28.30;99.90;;;;;;5056289;28;20056;-70
2022/07/19 10:40:40;;;;;;;5.95;3.33;;;28.40;99.60;;;;;;5029675;28;20104;-67
2022/07/19 10:43:07;;;;;;;8.55;2.80;;;28.60;98.00;;;;;;5065378;28;20064;-67
2022/07/19 10:45:34;;;;;;;4.13;2.92;;;28.70;98.70;;;;;;5041185;28;20075;-67
2022/07/19 10:48:02;;;;;;;6.47;2.92;;;28.80;98.20;;;;;;5044343;28;20081;-67
2022/07/19 10:50:45;;;;;;;7.95;3.15;;;28.90;97.80;;;;;;5042059;28;20063;-67
2022/07/19 10:53:31;;;;;;;11.00;3.25;;;29.20;96.80;;;;;;5037855;28;20507;-67
2022/07/19 10:56:27;;;;;;;6.75;2.70;;;29.20;97.70;;;;;;5067838;28;20559;-66
2022/07/19 10:58:58;;;;;;;7.60;2.70;;;29.20;97.80;;;;;;5083907;28;20047;-67
2022/07/19 11:01:26;;;;;;;6.88;3.00;;;29.30;97.10;;;;;;5065576;28;20048;-66
2022/07/19 11:03:54;;;;;;;5.75;2.67;;;29.50;95.80;;;;;;5066543;28;20501;-67
2022/07/19 11:06:25;;;;;;;7.13;3.20;;;29.50;96.70;;;;;;5082318;28;20037;-67
2022/07/19 11:08:56;;;;;;;6.53;3.00;;;29.50;96.90;;;;;;5083981;28;20052;-67
2022/07/19 11:11:23;;;;;;;7.90;2.90;;;29.60;97.00;;;;;;5083514;28;20036;-67
2022/07/19 11:13:54;;;;;;;5.68;3.30;;;29.70;96.50;;;;;;5084269;28;20326;-67
2022/07/19 11:16:20;;;;;;;5.50;2.75;;;29.80;95.90;;;;;;5065267;28;20048;-67
2022/07/19 11:18:47;;;;;;;4.78;3.25;;;29.70;96.20;;;;;;5083089;28;20056;-67
2022/07/19 11:21:14;;;;;;;7.68;3.20;;;29.90;94.90;;;;;;5062648;28;20052;-67
2022/07/19 11:23:40;;;;;;;7.05;3.08;;;30.10;94.10;;;;;;5070449;28;20033;-67
2022/07/19 11:26:09;;;;;;;10.20;2.97;;;30.10;94.80;;;;;;5062736;28;20055;-69
2022/07/19 11:28:35;;;;;;;7.07;2.80;;;30.10;95.20;;;;;;5049804;28;20061;-69
2022/07/19 11:31:15;;;;;;;6.45;3.00;;;30.20;94.50;;;;;;5045357;28;20041;-69
2022/07/19 11:33:41;;;;;;;4.90;2.58;;;30.20;94.70;;;;;;5075311;28;20041;-69
2022/07/19 11:36:08;;;;;;;8.52;2.95;;;30.30;94.70;;;;;;5084180;28;20135;-69
2022/07/19 11:38:51;;;;;;;7.60;3.13;;;30.40;94.80;;;;;;5066284;28;20499;-69
2022/07/19 11:41:28;;;;;;;4.82;2.83;;;30.60;94.40;;;;;;5077069;28;20046;-69
2022/07/19 11:44:00;;;;;;;7.13;3.03;;;30.80;94.20;;;;;;5083694;28;20090;-69
2022/07/19 11:46:33;;;;;;;4.55;2.90;;;30.90;92.80;;;;;;5072422;28;20037;-69
2022/07/19 11:49:00;;;;;;;11.65;3.08;;;31.00;93.10;;;;;;5066068;28;20043;-69
2022/07/19 11:51:27;;;;;;;5.53;2.88;;;31.00;92.90;;;;;;5051913;28;20052;-69
2022/07/19 11:53:56;;;;;;;5.90;3.25;;;31.10;92.40;;;;;;5078838;28;20047;-69
2022/07/19 11:56:24;;;;;;;6.45;2.85;;;31.30;92.20;;;;;;5064355;28;20052;-68
2022/07/19 11:58:51;;;;;;;7.10;2.90;;;31.40;90.50;;;;;;5062544;28;20042;-69
2022/07/19 12:01:24;;;;;;;6.65;2.83;;;31.60;90.40;;;;;;5065379;28;20108;-69
2022/07/19 12:04:04;;;;;;;6.05;2.75;;;31.40;90.60;;;;;;5087237;28;20040;-68
2022/07/19 12:06:51;;;;;;;6.15;2.97;;;31.50;90.50;;;;;;5067474;28;20063;-69
2022/07/19 12:09:19;;;;;;;5.30;2.75;;;31.40;90.60;;;;;;5057158;28;20055;-69
2022/07/19 12:11:50;;;;;;;6.80;2.33;;;31.50;90.40;;;;;;5054749;28;20051;-69
2022/07/19 12:14:28;;;;;;;5.18;2.60;;;31.50;89.30;;;;;;5068476;28;20291;-69
2022/07/19 12:17:13;;;;;;;4.70;2.60;;;31.60;88.90;;;;;;5067685;28;20062;-70
2022/07/19 12:19:41;;;;;;;3.20;2.20;;;31.60;86.70;;;;;;5086165;28;20049;-72
2022/07/19 12:22:25;;;;;;;4.47;2.40;;;31.90;84.40;;;;;;5068404;28;20033;-70
2022/07/19 12:24:51;;;;;;;4.03;1.80;;;32.00;84.30;;;;;;5067247;28;20054;-70
2022/07/19 12:27:17;;;;;;;5.07;2.00;;;32.10;82.90;;;;;;5065629;28;20045;-70
2022/07/19 12:29:48;;;;;;;8.02;2.70;;;32.30;84.40;;;;;;5055765;28;20067;-70
2022/07/19 12:32:27;;;;;;;3.90;2.20;;;32.40;83.70;;;;;;5068696;28;20067;-70
2022/07/19 12:35:00;;;;;;;7.53;2.45;;;32.50;82.70;;;;;;5067247;28;20076;-70
2022/07/19 12:37:44;;;;;;;3.53;2.13;;;32.70;80.20;;;;;;5066041;28;20080;-70
2022/07/19 12:40:21;;;;;;;6.03;2.28;;;32.70;80.10;;;;;;5065930;28;20056;-70
2022/07/19 12:43:02;;;;;;;5.22;2.10;;;32.70;80.10;;;;;;5068605;28;20040;-71
2022/07/19 12:45:31;;;;;;;8.40;2.17;;;32.80;79.10;;;;;;5086974;28;20055;-70
2022/07/19 12:47:57;;;;;;;8.77;2.88;;;32.90;78.70;;;;;;5084981;28;20036;-71
2022/07/19 12:50:27;;;;;;;6.38;2.40;;;33.00;77.40;;;;;;5086433;28;20044;-70
2022/07/19 12:52:55;;;;;;;6.72;2.40;;;33.00;77.90;;;;;;5069631;28;20047;-71